createdAt,value
2018-02-07T00:00:55.026Z,35.40
2018-02-07T00:02:57.469Z,35.40
2018-02-07T00:05:00.070Z,35.40
2018-02-07T00:07:02.560Z,35.40
2018-02-07T00:09:04.989Z,35.40
2018-02-07T00:11:07.476Z,35.40
2018-02-07T00:13:09.944Z,35.40
2018-02-07T00:15:12.385Z,35.50
2018-02-07T00:17:15.601Z,35.50
2018-02-07T00:19:18.054Z,35.50
2018-02-07T00:21:20.515Z,35.50
2018-02-07T00:23:23.109Z,35.40
2018-02-07T00:25:25.600Z,35.40
2018-02-07T00:27:28.246Z,35.50
2018-02-07T00:29:30.815Z,35.40
2018-02-07T00:31:33.400Z,35.40
2018-02-07T00:33:36.077Z,35.50
2018-02-07T00:35:38.553Z,35.50
2018-02-07T00:37:41.016Z,35.50
2018-02-07T00:39:43.473Z,35.50
2018-02-07T00:41:45.961Z,35.50
2018-02-07T00:43:48.420Z,35.50
2018-02-07T00:45:51.101Z,35.50
2018-02-07T00:47:53.592Z,35.50
2018-02-07T00:49:56.061Z,35.50
2018-02-07T00:51:58.481Z,35.50
2018-02-07T00:54:01.697Z,35.50
2018-02-07T00:56:04.183Z,35.50
2018-02-07T00:58:06.609Z,35.50
2018-02-07T01:00:09.028Z,35.60
2018-02-07T01:02:11.562Z,35.50
2018-02-07T01:04:13.989Z,35.50
2018-02-07T01:06:16.616Z,35.60
2018-02-07T01:08:19.037Z,35.50
2018-02-07T01:10:21.563Z,35.60
2018-02-07T01:12:23.984Z,35.20
2018-02-07T01:14:27.169Z,35.70
2018-02-07T01:16:29.606Z,35.60
2018-02-07T01:18:32.083Z,36.30
2018-02-07T01:20:34.629Z,35.60
2018-02-07T01:22:37.050Z,35.60
2018-02-07T01:24:39.501Z,35.60
2018-02-07T01:26:43.425Z,35.70
2018-02-07T01:28:45.908Z,35.60
2018-02-07T01:30:48.505Z,35.60
2018-02-07T01:32:51.182Z,35.60
2018-02-07T01:34:53.612Z,35.60
2018-02-07T01:36:56.842Z,35.70
2018-02-07T01:38:59.416Z,35.70
2018-02-07T01:41:01.837Z,35.60
2018-02-07T01:43:05.041Z,35.60
2018-02-07T01:45:07.640Z,35.60
2018-02-07T01:47:10.214Z,35.70
2018-02-07T01:49:12.665Z,35.60
2018-02-07T01:51:15.096Z,35.60
2018-02-07T01:53:17.709Z,35.70
2018-02-07T01:55:20.164Z,35.70
2018-02-07T01:57:23.353Z,35.70
2018-02-07T01:59:25.784Z,35.70
2018-02-07T02:01:28.305Z,35.70
2018-02-07T02:03:30.884Z,35.70
2018-02-07T02:05:33.335Z,35.70
2018-02-07T02:07:35.761Z,35.70
2018-02-07T02:09:38.298Z,35.70
2018-02-07T02:11:40.768Z,35.70
2018-02-07T02:13:43.246Z,35.70
2018-02-07T02:15:45.904Z,35.70
2018-02-07T02:17:48.577Z,35.70
2018-02-07T02:19:50.997Z,35.70
2018-02-07T02:21:53.521Z,35.70
2018-02-07T02:23:56.197Z,35.70
2018-02-07T02:25:58.617Z,35.70
2018-02-07T02:28:01.150Z,35.70
2018-02-07T02:30:03.801Z,35.90
2018-02-07T02:32:06.313Z,35.70
2018-02-07T02:34:08.954Z,35.70
2018-02-07T02:36:23.321Z,35.70
2018-02-07T02:38:25.794Z,35.70
2018-02-07T02:40:28.326Z,35.70
2018-02-07T02:42:30.803Z,35.70
2018-02-07T02:44:33.239Z,35.70
2018-02-07T02:46:35.664Z,35.70
2018-02-07T02:48:38.212Z,35.70
2018-02-07T02:50:40.796Z,35.70
2018-02-07T02:52:43.343Z,35.70
2018-02-07T02:54:45.789Z,35.70
2018-02-07T02:56:48.217Z,35.70
2018-02-07T02:58:50.750Z,35.70
2018-02-07T03:00:53.353Z,35.70
2018-02-07T03:02:55.781Z,35.70
2018-02-07T03:04:59.004Z,35.70
2018-02-07T03:07:01.572Z,35.70
2018-02-07T03:09:03.988Z,35.70
2018-02-07T03:11:06.516Z,35.60
2018-02-07T03:13:08.953Z,35.70
2018-02-07T03:15:12.148Z,35.70
2018-02-07T03:17:14.574Z,35.70
2018-02-07T03:19:17.048Z,35.70
2018-02-07T03:21:19.464Z,35.70
2018-02-07T03:23:21.896Z,35.60
2018-02-07T03:25:24.629Z,35.60
2018-02-07T03:27:27.051Z,35.60
2018-02-07T03:29:29.472Z,35.70
2018-02-07T03:31:32.234Z,35.60
2018-02-07T03:33:34.658Z,35.60
2018-02-07T03:35:37.194Z,35.60
2018-02-07T03:37:39.629Z,35.60
2018-02-07T03:39:42.047Z,35.60
2018-02-07T03:41:44.489Z,35.70
2018-02-07T03:43:46.928Z,35.60
2018-02-07T03:45:49.525Z,35.60
2018-02-07T03:47:51.961Z,35.70
2018-02-07T03:49:55.277Z,35.60
2018-02-07T03:51:57.828Z,35.60
2018-02-07T03:54:00.336Z,35.60
2018-02-07T03:56:02.748Z,35.60
2018-02-07T03:58:05.232Z,35.70
2018-02-07T04:00:07.672Z,35.60
2018-02-07T04:02:10.302Z,35.60
2018-02-07T04:04:12.737Z,35.60
2018-02-07T04:06:15.933Z,35.60
2018-02-07T04:08:18.533Z,35.60
2018-02-07T04:10:20.969Z,35.60
2018-02-07T04:12:24.177Z,35.60
2018-02-07T04:14:26.761Z,35.60
2018-02-07T04:16:29.325Z,35.60
2018-02-07T04:18:31.908Z,35.60
2018-02-07T04:20:34.586Z,35.60
2018-02-07T04:22:37.073Z,35.60
2018-02-07T04:24:39.596Z,35.60
2018-02-07T04:26:42.038Z,35.60
2018-02-07T04:28:45.979Z,35.60
2018-02-07T04:30:48.461Z,35.60
2018-02-07T04:32:50.877Z,35.60
2018-02-07T04:34:53.301Z,35.60
2018-02-07T04:36:55.976Z,35.60
2018-02-07T04:38:58.409Z,35.70
2018-02-07T04:41:01.622Z,35.80
2018-02-07T04:43:04.093Z,35.60
2018-02-07T04:45:06.675Z,35.70
2018-02-07T04:47:09.101Z,35.70
2018-02-07T04:49:11.550Z,35.70
2018-02-07T04:51:14.082Z,35.70
2018-02-07T04:53:16.505Z,35.70
2018-02-07T04:55:18.960Z,35.70
2018-02-07T04:57:21.499Z,36.30
2018-02-07T04:59:24.177Z,35.70
2018-02-07T05:01:26.622Z,35.70
2018-02-07T05:03:29.037Z,35.80
2018-02-07T05:05:31.474Z,35.70
2018-02-07T05:07:33.941Z,35.70
2018-02-07T05:09:36.513Z,35.70
2018-02-07T05:11:38.988Z,35.70
2018-02-07T05:13:41.411Z,35.70
2018-02-07T05:15:43.849Z,35.70
2018-02-07T05:17:46.392Z,35.70
2018-02-07T05:19:48.820Z,35.70
2018-02-07T05:21:52.047Z,35.70
2018-02-07T05:23:54.491Z,35.60
2018-02-07T05:25:57.091Z,35.70
2018-02-07T05:27:59.622Z,35.70
2018-02-07T05:30:02.229Z,35.70
2018-02-07T05:32:04.717Z,35.60
2018-02-07T05:34:07.249Z,35.60
2018-02-07T05:36:09.844Z,35.60
2018-02-07T05:38:12.276Z,35.60
2018-02-07T05:40:15.464Z,35.60
2018-02-07T05:42:17.974Z,35.60
2018-02-07T05:44:20.544Z,35.60
2018-02-07T05:46:23.029Z,35.60
2018-02-07T05:48:25.512Z,35.60
2018-02-07T05:50:27.981Z,35.60
2018-02-07T05:52:30.632Z,35.60
2018-02-07T05:54:33.064Z,35.60
2018-02-07T05:56:36.384Z,35.60
2018-02-07T05:58:38.856Z,35.60
2018-02-07T06:00:42.053Z,35.60
2018-02-07T06:02:44.506Z,35.60
2018-02-07T06:04:46.932Z,35.60
2018-02-07T06:06:49.368Z,35.60
2018-02-07T06:08:51.840Z,35.60
2018-02-07T06:10:54.263Z,35.60
2018-02-07T06:12:57.582Z,35.60
2018-02-07T06:15:00.349Z,35.60
2018-02-07T06:17:02.924Z,35.60
2018-02-07T06:19:05.396Z,35.60
2018-02-07T06:21:07.874Z,35.50
2018-02-07T06:23:10.362Z,35.50
2018-02-07T06:25:12.836Z,35.50
2018-02-07T06:27:15.249Z,35.60
2018-02-07T06:29:18.461Z,35.60
2018-02-07T06:31:20.927Z,35.60
2018-02-07T06:33:23.397Z,35.50
2018-02-07T06:35:25.869Z,35.50
2018-02-07T06:37:28.445Z,35.50
2018-02-07T06:39:30.898Z,35.50
2018-02-07T06:41:33.335Z,35.50
2018-02-07T06:43:35.876Z,35.50
2018-02-07T06:45:38.404Z,35.50
2018-02-07T06:47:40.885Z,35.50
2018-02-07T06:49:43.473Z,35.50
2018-02-07T06:51:45.918Z,35.50
2018-02-07T06:53:49.093Z,35.50
2018-02-07T06:55:51.701Z,35.50
2018-02-07T06:57:54.149Z,35.50
2018-02-07T06:59:56.577Z,35.50
2018-02-07T07:01:59.004Z,35.50
2018-02-07T07:04:01.579Z,35.60
2018-02-07T07:06:04.085Z,35.60
2018-02-07T07:08:06.507Z,35.60
2018-02-07T07:10:08.992Z,35.50
2018-02-07T07:12:11.441Z,35.50
2018-02-07T07:14:13.918Z,35.50
2018-02-07T07:16:16.588Z,35.50
2018-02-07T07:18:19.082Z,35.50
2018-02-07T07:20:21.555Z,35.50
2018-02-07T07:22:24.017Z,35.50
2018-02-07T07:24:26.446Z,35.50
2018-02-07T07:26:29.761Z,35.60
2018-02-07T07:28:32.235Z,35.50
2018-02-07T07:30:34.677Z,35.60
2018-02-07T07:32:37.896Z,35.50
2018-02-07T07:34:40.308Z,35.50
2018-02-07T07:36:42.935Z,35.60
2018-02-07T07:38:45.532Z,35.60
2018-02-07T07:40:48.662Z,35.60
2018-02-07T07:42:51.881Z,35.60
2018-02-07T07:44:54.304Z,35.60
2018-02-07T07:46:56.725Z,35.70
2018-02-07T07:48:59.159Z,35.70
2018-02-07T07:51:01.585Z,35.80
2018-02-07T07:53:04.013Z,35.80
2018-02-07T07:55:06.437Z,35.70
2018-02-07T07:57:08.874Z,35.80
2018-02-07T07:59:11.314Z,35.80
2018-02-07T08:01:13.742Z,35.70
2018-02-07T08:03:16.184Z,35.80
2018-02-07T08:05:18.626Z,35.80
2018-02-07T08:07:21.041Z,35.90
2018-02-07T08:09:23.485Z,35.90
2018-02-07T08:11:25.901Z,35.90
2018-02-07T08:13:29.085Z,35.90
2018-02-07T08:15:32.288Z,35.90
2018-02-07T08:17:35.488Z,35.90
2018-02-07T08:19:37.909Z,35.90
2018-02-07T08:21:40.341Z,35.90
2018-02-07T08:23:42.768Z,35.90
2018-02-07T08:25:45.970Z,35.90
2018-02-07T08:27:49.174Z,35.90
2018-02-07T08:29:51.598Z,35.90
2018-02-07T08:31:54.025Z,35.90
2018-02-07T08:33:56.506Z,35.90
2018-02-07T08:35:58.924Z,36.00
2018-02-07T08:38:02.117Z,36.10
2018-02-07T08:40:05.317Z,36.10
2018-02-07T08:42:07.725Z,36.10
2018-02-07T08:44:10.145Z,36.20
2018-02-07T08:46:12.836Z,37.20
2018-02-07T08:48:15.249Z,37.30
2018-02-07T08:50:17.689Z,37.30
2018-02-07T08:52:20.110Z,37.30
2018-02-07T08:54:23.285Z,37.40
2018-02-07T08:56:25.725Z,37.40
2018-02-07T08:58:28.181Z,37.50
2018-02-07T13:46:16.988Z,38.20
2018-02-07T13:48:19.401Z,37.50
2018-02-07T13:50:21.902Z,37.50
2018-02-07T13:52:24.332Z,37.50
2018-02-07T13:54:26.817Z,37.50
2018-02-07T13:56:29.259Z,37.40
2018-02-07T13:58:32.446Z,37.30
2018-02-07T14:03:05.574Z,37.30
2018-02-07T14:05:08.017Z,37.30
2018-02-07T14:07:11.209Z,37.30
2018-02-07T14:09:14.395Z,37.20
2018-02-07T14:11:16.990Z,37.20
2018-02-07T14:13:19.404Z,37.20
2018-02-07T14:15:21.829Z,37.10
2018-02-07T14:17:24.273Z,37.00
2018-02-07T14:19:27.456Z,37.00
2018-02-07T14:21:30.648Z,37.00
2018-02-07T14:23:33.832Z,37.00
2018-02-07T14:25:37.038Z,36.80
2018-02-07T14:27:39.460Z,36.80
2018-02-07T14:29:41.885Z,36.60
2018-02-07T14:31:44.301Z,36.40
2018-02-07T14:33:46.748Z,36.30
2018-02-07T14:35:49.171Z,36.10
2018-02-07T14:37:51.589Z,36.00
2018-02-07T14:39:54.024Z,35.90
2018-02-07T14:41:56.438Z,35.70
2018-02-07T14:43:58.855Z,35.60
2018-02-07T14:46:01.285Z,35.50
2018-02-07T14:48:03.709Z,35.50
2018-02-07T14:50:06.156Z,35.50
2018-02-07T14:52:08.566Z,35.30
2018-02-07T14:54:10.985Z,35.30
2018-02-07T14:56:13.424Z,35.20
2018-02-07T14:58:15.835Z,35.20
2018-02-07T15:00:18.248Z,35.20
2018-02-07T15:02:20.681Z,35.20
2018-02-07T15:04:23.114Z,35.10
2018-02-07T15:06:26.296Z,35.00
2018-02-07T15:08:29.493Z,35.00
2018-02-07T15:10:32.685Z,35.00
2018-02-07T15:12:35.879Z,35.00
2018-02-07T15:14:38.299Z,35.00
2018-02-07T15:16:40.732Z,35.00
2018-02-07T15:18:43.157Z,35.00
2018-02-07T15:20:45.568Z,35.00
2018-02-07T15:22:47.984Z,34.90
2018-02-07T15:24:50.404Z,34.90
2018-02-07T15:26:52.848Z,34.90
2018-02-07T15:28:56.025Z,35.00
2018-02-07T15:30:59.229Z,35.00
2018-02-07T15:33:01.649Z,35.00
2018-02-07T15:35:04.080Z,35.00
2018-02-07T15:37:06.504Z,35.00
2018-02-07T15:39:08.937Z,35.00
2018-02-07T15:41:11.370Z,35.00
2018-02-07T15:43:14.569Z,35.00
2018-02-07T15:45:16.988Z,35.10
2018-02-07T15:47:19.457Z,35.00
2018-02-07T15:49:21.882Z,35.00
2018-02-07T15:51:24.298Z,35.00
2018-02-07T15:53:26.727Z,35.10
2018-02-07T15:55:29.148Z,35.10
2018-02-07T15:57:31.573Z,35.00
2018-02-07T15:59:33.999Z,35.00
2018-02-07T16:01:37.306Z,35.10
2018-02-07T16:03:39.723Z,35.10
2018-02-07T16:05:42.145Z,35.10
2018-02-07T16:07:44.722Z,35.10
2018-02-07T16:09:47.182Z,35.10
2018-02-07T16:11:49.594Z,35.10
2018-02-07T16:13:52.021Z,35.20
2018-02-07T16:15:54.452Z,35.80
2018-02-07T16:17:56.873Z,35.20
2018-02-07T16:19:59.307Z,35.20
2018-02-07T16:22:02.493Z,35.20
2018-02-07T16:24:05.697Z,35.20
2018-02-07T16:26:08.137Z,35.20
2018-02-07T16:28:10.557Z,35.20
2018-02-07T16:30:12.973Z,35.20
2018-02-07T16:32:15.401Z,35.20
2018-02-07T16:34:17.816Z,35.30
2018-02-07T16:36:20.994Z,35.30
2018-02-07T16:38:23.428Z,35.20
2018-02-07T16:40:25.857Z,35.30
2018-02-07T16:42:29.043Z,35.30
2018-02-07T16:44:32.227Z,35.30
2018-02-07T16:46:35.445Z,35.30
2018-02-07T16:48:37.862Z,35.30
2018-02-07T16:50:40.288Z,35.30
2018-02-07T16:52:42.724Z,35.30
2018-02-07T16:54:45.922Z,35.40
2018-02-07T16:56:48.357Z,35.30
2018-02-07T16:58:50.771Z,35.40
2018-02-07T17:00:53.186Z,35.40
2018-02-07T17:02:55.617Z,35.40
2018-02-07T17:04:58.053Z,35.40
2018-02-07T17:07:01.237Z,35.40
2018-02-07T17:09:04.465Z,35.40
2018-02-07T17:11:06.910Z,35.40
2018-02-07T17:13:09.369Z,35.40
2018-02-07T17:15:11.963Z,35.40
2018-02-07T17:17:14.637Z,35.40
2018-02-07T17:19:17.110Z,35.40
2018-02-07T17:21:19.697Z,35.40
2018-02-07T17:23:53.116Z,35.40
2018-02-07T17:26:10.681Z,35.40
2018-02-07T17:28:13.261Z,35.40
2018-02-07T17:30:15.813Z,35.40
2018-02-07T17:32:18.414Z,35.40
2018-02-07T17:34:20.837Z,35.40
2018-02-07T17:36:23.352Z,35.50
2018-02-07T17:38:25.848Z,35.10
2018-02-07T17:40:28.492Z,35.40
2018-02-07T17:42:30.991Z,35.40
2018-02-07T17:44:33.390Z,35.40
2018-02-07T17:46:35.824Z,35.40
2018-02-07T17:48:38.247Z,35.40
2018-02-07T17:50:40.730Z,35.40
2018-02-07T17:52:43.190Z,35.40
2018-02-07T17:54:45.611Z,35.40
2018-02-07T17:56:48.164Z,35.50
2018-02-07T17:58:50.580Z,35.40
2018-02-07T18:00:53.189Z,35.40
2018-02-07T18:02:55.696Z,35.50
2018-02-07T18:04:58.156Z,35.50
2018-02-07T18:07:00.589Z,35.50
2018-02-07T18:09:03.086Z,35.50
2018-02-07T18:11:05.740Z,35.50
2018-02-07T18:13:08.218Z,35.50
2018-02-07T18:15:10.770Z,35.40
2018-02-07T18:17:13.212Z,35.50
2018-02-07T18:19:16.444Z,35.40
2018-02-07T18:21:18.867Z,35.40
2018-02-07T18:23:21.385Z,35.40
2018-02-07T18:25:23.869Z,35.40
2018-02-07T18:27:26.339Z,35.40
2018-02-07T18:29:28.989Z,35.40
2018-02-07T18:31:31.491Z,35.40
2018-02-07T18:33:33.914Z,35.40
2018-02-07T18:35:36.461Z,35.40
2018-02-07T18:37:38.897Z,35.40
2018-02-07T18:39:41.353Z,35.40
2018-02-07T18:41:43.841Z,36.00
2018-02-07T18:43:46.318Z,35.40
2018-02-07T18:45:48.732Z,35.50
2018-02-07T18:47:51.932Z,35.50
2018-02-07T18:49:54.393Z,35.40
2018-02-07T18:51:56.821Z,35.40
2018-02-07T18:54:00.762Z,35.50
2018-02-07T18:56:03.201Z,35.30
2018-02-07T18:58:07.132Z,35.40
2018-02-07T19:00:09.734Z,35.30
2018-02-07T19:02:12.197Z,35.40
2018-02-07T19:04:14.621Z,35.50
2018-02-07T19:06:17.061Z,35.40
2018-02-07T19:08:19.608Z,35.90
2018-02-07T19:10:22.077Z,35.40
2018-02-07T19:12:24.558Z,35.30
2018-02-07T19:14:26.975Z,35.40
2018-02-07T19:16:30.195Z,35.40
2018-02-07T19:18:32.622Z,35.30
2018-02-07T19:20:35.245Z,35.40
2018-02-07T19:22:37.673Z,35.40
2018-02-07T19:24:40.891Z,35.70
2018-02-07T19:26:43.329Z,35.30
2018-02-07T19:28:45.937Z,35.40
2018-02-07T19:30:48.511Z,35.40
2018-02-07T19:32:50.925Z,35.40
2018-02-07T19:34:53.438Z,35.30
2018-02-07T19:36:55.865Z,35.30
2018-02-07T19:38:58.287Z,35.30
2018-02-07T19:41:00.706Z,35.40
2018-02-07T19:43:03.181Z,35.30
2018-02-07T19:45:05.601Z,35.30
2018-02-07T19:47:08.112Z,35.70
2018-02-07T19:49:10.641Z,35.30
2018-02-07T19:51:13.109Z,35.30
2018-02-07T19:53:15.525Z,35.30
2018-02-07T19:55:18.061Z,35.30
2018-02-07T19:57:20.617Z,35.30
2018-02-07T19:59:23.191Z,35.30
2018-02-07T20:01:25.623Z,35.20
2018-02-07T20:03:28.842Z,35.20
2018-02-07T20:05:31.256Z,35.20
2018-02-07T20:07:33.888Z,35.20
2018-02-07T20:09:36.389Z,35.20
2018-02-07T20:11:38.849Z,35.00
2018-02-07T20:13:41.501Z,35.00
2018-02-07T20:15:43.929Z,34.90
2018-02-07T20:17:46.457Z,34.90
2018-02-07T20:19:48.945Z,34.90
2018-02-07T20:21:51.409Z,34.80
2018-02-07T20:23:54.048Z,34.80
2018-02-07T20:25:56.624Z,34.80
2018-02-07T20:27:59.269Z,34.70
2018-02-07T20:30:01.741Z,34.70
2018-02-07T20:32:04.208Z,34.60
2018-02-07T20:34:06.637Z,34.60
2018-02-07T20:36:09.169Z,34.60
2018-02-07T20:38:11.755Z,34.60
2018-02-07T20:40:14.170Z,34.60
2018-02-07T20:42:16.601Z,34.60
2018-02-07T20:44:19.029Z,35.00
2018-02-07T20:46:21.453Z,34.50
2018-02-07T20:48:23.912Z,34.40
2018-02-07T20:50:26.564Z,34.40
2018-02-07T20:52:28.984Z,34.40
2018-02-07T20:54:31.401Z,34.30
2018-02-07T20:56:33.983Z,34.30
2018-02-07T20:58:36.539Z,34.30
2018-02-07T21:00:38.961Z,34.30
2018-02-07T21:02:41.595Z,34.30
2018-02-07T21:04:44.015Z,34.30
2018-02-07T21:06:46.593Z,34.30
2018-02-07T21:08:49.014Z,34.30
2018-02-07T21:10:51.487Z,34.30
2018-02-07T21:12:53.927Z,34.30
2018-02-07T21:14:56.434Z,34.30
2018-02-07T21:16:58.872Z,34.30
2018-02-07T21:19:01.452Z,34.20
2018-02-07T21:21:03.902Z,34.30
2018-02-07T21:23:06.332Z,34.20
2018-02-07T21:25:08.832Z,34.20
2018-02-07T21:27:12.041Z,34.20
2018-02-07T21:29:14.525Z,34.20
2018-02-07T21:31:16.957Z,34.20
2018-02-07T21:33:20.176Z,34.20
2018-02-07T21:35:22.633Z,34.20
2018-02-07T21:37:25.214Z,34.20
2018-02-07T21:39:27.667Z,34.20
2018-02-07T21:41:30.167Z,34.20
2018-02-07T21:43:32.636Z,34.20
2018-02-07T21:45:35.292Z,34.20
2018-02-07T21:47:37.774Z,34.20
2018-02-07T21:49:40.439Z,34.30
2018-02-07T21:51:42.912Z,34.20
2018-02-07T21:53:45.390Z,34.30
2018-02-07T21:55:48.046Z,34.20
2018-02-07T21:57:50.552Z,34.20
2018-02-07T21:59:53.093Z,34.20
2018-02-07T22:01:55.561Z,34.80
2018-02-07T22:03:57.990Z,34.20
2018-02-07T22:06:01.310Z,34.30
2018-02-07T22:08:03.898Z,34.30
2018-02-07T22:10:06.372Z,34.30
2018-02-07T22:12:08.926Z,34.30
2018-02-07T22:14:11.353Z,34.30
2018-02-07T22:16:15.321Z,34.30
2018-02-07T22:18:17.736Z,34.30
2018-02-07T22:20:20.172Z,34.30
2018-02-07T22:22:22.820Z,34.30
2018-02-07T22:24:25.309Z,34.30
2018-02-07T22:26:27.785Z,34.30
2018-02-07T22:28:30.333Z,34.90
2018-02-07T22:30:32.910Z,34.30
2018-02-07T22:32:35.389Z,34.30
2018-02-07T22:34:37.864Z,34.30
2018-02-07T22:36:40.293Z,34.30
2018-02-07T22:38:43.612Z,34.30
2018-02-07T22:40:46.083Z,34.30
2018-02-07T22:42:48.754Z,34.30
2018-02-07T22:44:51.221Z,34.30
2018-02-07T22:46:53.702Z,34.30
2018-02-07T22:48:56.206Z,34.30
2018-02-07T22:50:58.629Z,34.30
2018-02-07T22:53:01.118Z,34.30
2018-02-07T22:55:03.562Z,34.40
2018-02-07T22:57:06.009Z,34.40
2018-02-07T22:59:09.325Z,34.40
2018-02-07T23:01:11.804Z,34.40
2018-02-07T23:03:14.245Z,34.40
2018-02-07T23:05:17.426Z,34.40
2018-02-07T23:07:19.848Z,34.40
2018-02-07T23:09:22.488Z,34.40
2018-02-07T23:11:24.913Z,34.40
2018-02-07T23:13:27.632Z,34.40
2018-02-07T23:15:30.081Z,34.30
2018-02-07T23:17:33.278Z,34.40
2018-02-07T23:19:35.870Z,34.30
2018-02-07T23:21:38.308Z,34.30
2018-02-07T23:23:41.490Z,34.30
2018-02-07T23:25:43.930Z,34.30
2018-02-07T23:27:46.560Z,34.30
2018-02-07T23:29:49.001Z,34.30
2018-02-07T23:31:52.198Z,34.40
2018-02-07T23:33:54.784Z,34.30
2018-02-07T23:35:57.232Z,34.30
2018-02-07T23:38:00.437Z,34.50
2018-02-07T23:40:02.853Z,34.50
2018-02-07T23:42:05.288Z,34.40
2018-02-07T23:44:07.784Z,34.30
2018-02-07T23:46:10.428Z,34.40
2018-02-07T23:48:12.899Z,34.40
2018-02-07T23:50:15.409Z,34.40
2018-02-07T23:52:18.040Z,34.40
2018-02-07T23:54:20.485Z,34.40
2018-02-07T23:56:23.668Z,34.40
2018-02-07T23:58:26.114Z,34.40
